< < Back
Terminal Aerodrome Forecast


Current Version              Previous Versions:   1  2  3  4  5  6  7  8  9  

Terminal Aerodrome Forecast

190
FTUS42 KFFC 061941 AAB
TAFATL
TAF AMD
KATL 061941Z 0620/0724 35008KT P6SM BKN040
     FM062100 32007KT P6SM SCT045
     FM070000 30005KT P6SM FEW250
     FM071900 28006KT P6SM SCT150=



Latest METAR

482
SAUS70 KWBC 062000 RRC
MTRATL
METAR KATL 061952Z 33008KT 10SM BKN038 BKN230 09/M01 A3038 RMK AO2
SLP294 T00941006


USA.gov is the U.S. government's official web portal to all federal, state and local government web resources and services.